Terminal Aerodrome Forecast
Issued by NWS

Home | Current Version | Previous Version | Text Only | Print | Product List | Glossary Off
Versions: 1 2 3 4 5 6 7 8 9 10 11 12 13 14 15 16 17 18 19 20 21 22 23 24

000
FTUS45 KGGW 190520
TAFGDV
TAF
KGDV 190520Z 1906/2006 08008KT P6SM SKC
     FM191000 22006KT P6SM FEW250
     FM191400 29012KT P6SM FEW250
     FM192300 33016KT P6SM FEW150
     FM200300 35008KT P6SM FEW150=

USA.gov is the U.S. government's official web portal to all federal, state and local government web resources and services.